createdAt,value
2018-11-26T00:00:07.995Z,29.47
2018-11-26T00:02:36.509Z,25.17
2018-11-26T00:05:05.182Z,27.87
2018-11-26T00:07:33.657Z,27.27
2018-11-26T00:10:13.358Z,26.60
2018-11-26T00:12:41.827Z,27.20
2018-11-26T00:15:10.465Z,24.63
2018-11-26T00:17:38.935Z,27.53
2018-11-26T00:20:07.454Z,28.53
2018-11-26T00:22:35.953Z,26.93
2018-11-26T00:25:04.631Z,27.57
2018-11-26T00:27:33.085Z,27.47
2018-11-26T00:30:01.536Z,27.33
2018-11-26T00:32:29.965Z,27.03
2018-11-26T00:34:58.435Z,27.70
2018-11-26T00:37:26.902Z,28.07
2018-11-26T00:39:55.378Z,26.33
2018-11-26T00:42:23.824Z,27.00
2018-11-26T00:44:52.337Z,28.50
2018-11-26T00:47:20.774Z,27.83
2018-11-26T00:49:49.205Z,27.13
2018-11-26T00:52:17.655Z,28.77
2018-11-26T00:54:46.185Z,26.03
2018-11-26T00:57:15.236Z,27.07
2018-11-26T00:59:43.770Z,28.03
2018-11-26T01:02:12.911Z,28.07
2018-11-26T01:04:41.449Z,27.50
2018-11-26T01:07:09.940Z,27.07
2018-11-26T01:09:38.389Z,28.30
2018-11-26T01:12:06.844Z,26.97
2018-11-26T01:14:35.357Z,29.40
2018-11-26T01:17:03.847Z,25.70
2018-11-26T01:19:32.296Z,29.30
2018-11-26T01:22:00.744Z,27.83
2018-11-26T01:24:29.240Z,28.97
2018-11-26T01:26:57.730Z,27.63
2018-11-26T01:29:26.194Z,28.73
2018-11-26T01:31:54.702Z,28.37
2018-11-26T01:34:23.905Z,28.43
2018-11-26T01:36:52.427Z,26.53
2018-11-26T01:39:20.911Z,27.47
2018-11-26T01:41:49.366Z,27.13
2018-11-26T01:44:17.932Z,28.43
2018-11-26T01:46:46.438Z,27.43
2018-11-26T01:49:14.882Z,27.27
2018-11-26T01:51:43.294Z,27.40
2018-11-26T01:54:11.751Z,26.27
2018-11-26T01:56:40.250Z,28.37
2018-11-26T01:59:08.688Z,25.87
2018-11-26T02:01:37.120Z,27.97
2018-11-26T02:04:05.599Z,27.57
2018-11-26T02:06:34.042Z,26.07
2018-11-26T02:09:02.534Z,26.47
2018-11-26T02:11:31.013Z,26.67
2018-11-26T02:13:59.481Z,25.93
2018-11-26T02:16:27.921Z,27.13
2018-11-26T02:18:56.361Z,26.30
2018-11-26T02:21:24.821Z,27.73
2018-11-26T02:23:53.330Z,25.93
2018-11-26T02:26:21.863Z,25.67
2018-11-26T02:28:50.329Z,26.53
2018-11-26T02:31:18.794Z,26.23
2018-11-26T02:33:47.262Z,26.77
2018-11-26T02:36:16.814Z,25.37
2018-11-26T02:38:45.329Z,26.73
2018-11-26T02:41:13.792Z,23.73
2018-11-26T02:43:42.294Z,26.43
2018-11-26T02:46:10.738Z,26.30
2018-11-26T02:48:39.178Z,25.27
2018-11-26T02:51:07.647Z,25.43
2018-11-26T02:53:36.191Z,26.57
2018-11-26T02:56:04.689Z,25.33
2018-11-26T02:58:33.133Z,26.53
2018-11-26T03:01:01.573Z,25.00
2018-11-26T03:03:30.137Z,25.00
2018-11-26T03:05:58.620Z,26.70
2018-11-26T03:08:27.146Z,25.23
2018-11-26T03:10:55.704Z,27.80
2018-11-26T03:13:24.214Z,25.00
2018-11-26T03:15:52.677Z,25.47
2018-11-26T03:18:21.125Z,27.23
2018-11-26T03:20:49.593Z,26.50
2018-11-26T03:23:18.060Z,26.53
2018-11-26T03:25:46.469Z,26.73
2018-11-26T03:28:14.948Z,26.40
2018-11-26T03:30:43.372Z,26.13
2018-11-26T03:33:11.971Z,26.93
2018-11-26T03:35:40.610Z,28.17
2018-11-26T03:38:12.498Z,29.70
2018-11-26T03:40:41.312Z,26.73
2018-11-26T03:43:10.109Z,28.70
2018-11-26T03:45:38.551Z,28.53
2018-11-26T03:48:07.445Z,28.97
2018-11-26T03:50:35.973Z,29.13
2018-11-26T03:53:04.508Z,28.53
2018-11-26T03:55:33.087Z,30.63
2018-11-26T03:58:01.555Z,29.93
2018-11-26T04:00:30.053Z,28.77
2018-11-26T04:02:58.544Z,29.27
2018-11-26T04:05:27.055Z,31.27
2018-11-26T04:07:55.498Z,29.60
2018-11-26T04:10:24.033Z,30.87
2018-11-26T04:12:53.474Z,29.77
2018-11-26T04:15:21.963Z,29.33
2018-11-26T04:17:50.468Z,28.73
2018-11-26T04:20:18.974Z,28.10
2018-11-26T04:22:47.582Z,28.07
2018-11-26T04:25:16.115Z,29.23
2018-11-26T04:27:44.580Z,30.23
2018-11-26T04:30:13.054Z,28.73
2018-11-26T04:32:41.541Z,30.37
2018-11-26T04:35:10.937Z,29.80
2018-11-26T04:37:39.390Z,29.73
2018-11-26T04:40:10.176Z,30.37
2018-11-26T04:42:38.696Z,30.67
2018-11-26T04:45:08.672Z,30.40
2018-11-26T04:47:37.215Z,30.70
2018-11-26T04:50:08.446Z,29.77
2018-11-26T04:52:36.877Z,28.90
2018-11-26T04:55:05.555Z,29.27
2018-11-26T04:57:34.241Z,28.87
2018-11-26T05:00:02.527Z,30.33
2018-11-26T05:02:30.969Z,29.17
2018-11-26T05:04:59.480Z,29.57
2018-11-26T05:07:27.906Z,29.80
2018-11-26T05:09:56.389Z,30.20
2018-11-26T05:12:24.842Z,29.93
2018-11-26T05:14:53.303Z,27.27
2018-11-26T05:17:21.749Z,28.70
2018-11-26T05:19:50.205Z,31.07
2018-11-26T05:22:18.998Z,29.10
2018-11-26T05:24:47.451Z,30.33
2018-11-26T05:27:15.852Z,29.53
2018-11-26T05:29:44.356Z,30.03
2018-11-26T05:32:12.801Z,29.27
2018-11-26T05:34:41.277Z,30.10
2018-11-26T05:37:09.737Z,29.97
2018-11-26T05:39:38.157Z,29.87
2018-11-26T05:42:06.620Z,27.80
2018-11-26T05:44:35.060Z,29.83
2018-11-26T05:47:03.474Z,29.10
2018-11-26T05:49:31.938Z,30.03
2018-11-26T05:52:00.392Z,29.60
2018-11-26T05:54:29.657Z,29.80
2018-11-26T05:56:58.171Z,29.30
2018-11-26T05:59:26.652Z,31.17
2018-11-26T06:01:55.104Z,28.77
2018-11-26T06:04:23.578Z,29.27
2018-11-26T06:06:52.038Z,30.50
2018-11-26T06:09:20.502Z,29.80
2018-11-26T06:11:48.947Z,30.73
2018-11-26T06:14:17.435Z,29.73
2018-11-26T06:16:53.277Z,30.23
2018-11-26T06:19:14.436Z,32.40
2018-11-26T06:21:42.896Z,30.97
2018-11-26T06:24:11.442Z,30.27
2018-11-26T06:26:39.900Z,26.77
2018-11-26T06:29:08.376Z,30.50
2018-11-26T06:31:36.873Z,29.00
2018-11-26T06:34:05.546Z,28.00
2018-11-26T06:36:34.061Z,29.87
2018-11-26T06:39:02.583Z,29.63
2018-11-26T06:41:31.057Z,30.27
2018-11-26T06:43:59.478Z,28.50
2018-11-26T06:46:27.956Z,29.53
2018-11-26T06:48:56.451Z,30.87
2018-11-26T06:51:24.940Z,31.73
2018-11-26T06:53:53.377Z,28.67
2018-11-26T06:56:22.003Z,30.93
2018-11-26T06:58:50.445Z,28.87
2018-11-26T07:01:18.902Z,31.47
2018-11-26T07:03:47.362Z,30.20
2018-11-26T07:06:15.862Z,30.90
2018-11-26T07:08:44.290Z,31.27
2018-11-26T07:11:12.817Z,31.23
2018-11-26T07:13:41.927Z,30.87
2018-11-26T07:18:33.582Z,30.33
2018-11-26T07:21:01.998Z,30.77
2018-11-26T07:23:30.422Z,29.07
2018-11-26T07:25:58.885Z,30.53
2018-11-26T07:28:27.349Z,29.80
2018-11-26T07:30:55.786Z,30.67
2018-11-26T07:33:24.258Z,29.80
2018-11-26T07:35:52.716Z,28.97
2018-11-26T07:38:21.205Z,31.67
2018-11-26T07:40:50.291Z,29.40
2018-11-26T07:43:20.004Z,31.90
2018-11-26T07:45:48.434Z,28.03
2018-11-26T07:48:16.883Z,29.53
2018-11-26T07:50:45.319Z,29.77
2018-11-26T07:53:13.741Z,28.97
2018-11-26T07:55:42.208Z,31.40
2018-11-26T07:58:10.710Z,30.20
2018-11-26T08:00:39.146Z,30.10
2018-11-26T08:03:07.677Z,28.80
2018-11-26T08:05:36.098Z,30.27
2018-11-26T08:08:04.597Z,29.80
2018-11-26T08:10:33.044Z,28.33
2018-11-26T08:13:01.516Z,29.60
2018-11-26T08:15:30.010Z,26.93
2018-11-26T08:17:58.511Z,28.83
2018-11-26T08:20:27.034Z,28.57
2018-11-26T08:22:55.481Z,30.30
2018-11-26T08:25:24.441Z,29.30
2018-11-26T08:27:53.241Z,28.80
2018-11-26T08:30:23.780Z,29.30
2018-11-26T08:32:55.482Z,28.33
2018-11-26T08:35:24.025Z,28.40
2018-11-26T08:37:57.412Z,27.43
2018-11-26T08:40:28.898Z,28.40
2018-11-26T08:42:58.301Z,25.97
2018-11-26T08:45:34.342Z,25.50
2018-11-26T08:48:06.192Z,27.13
2018-11-26T08:50:34.681Z,27.43
2018-11-26T08:53:03.113Z,26.47
2018-11-26T08:55:31.566Z,27.80
2018-11-26T08:58:00.018Z,28.23
2018-11-26T09:00:28.936Z,27.80
2018-11-26T09:03:05.512Z,26.13
2018-11-26T09:05:35.878Z,24.63
2018-11-26T09:08:04.344Z,26.73
2018-11-26T09:10:32.907Z,27.37
2018-11-26T09:13:01.362Z,27.83
2018-11-26T09:15:29.854Z,26.93
2018-11-26T09:17:58.307Z,24.33
2018-11-26T09:20:26.837Z,28.27
2018-11-26T09:22:55.271Z,28.07
2018-11-26T09:25:23.750Z,26.50
2018-11-26T09:27:52.191Z,26.73
2018-11-26T09:30:20.623Z,27.50
2018-11-26T09:32:49.044Z,27.43
2018-11-26T09:35:17.592Z,27.87
2018-11-26T09:37:46.061Z,28.93
2018-11-26T09:40:16.466Z,27.83
2018-11-26T09:42:45.069Z,28.63
2018-11-26T09:45:15.582Z,25.90
2018-11-26T09:47:44.104Z,28.10
2018-11-26T09:50:14.639Z,27.37
2018-11-26T09:52:43.142Z,27.40
2018-11-26T09:55:12.598Z,26.70
2018-11-26T09:57:41.085Z,27.47
2018-11-26T10:00:16.561Z,29.03
2018-11-26T10:02:46.194Z,26.60
2018-11-26T10:05:16.042Z,27.30
2018-11-26T10:07:44.506Z,28.23
2018-11-26T10:10:13.339Z,29.17
2018-11-26T10:12:42.540Z,28.57
2018-11-26T10:15:13.320Z,26.87
2018-11-26T10:17:41.760Z,26.77
2018-11-26T10:20:11.062Z,26.87
2018-11-26T10:22:39.711Z,27.57
2018-11-26T10:25:14.786Z,28.27
2018-11-26T10:27:43.307Z,27.83
2018-11-26T10:30:12.780Z,29.77
2018-11-26T10:32:41.445Z,27.60
2018-11-26T10:35:11.274Z,26.43
2018-11-26T10:37:39.751Z,29.03
2018-11-26T10:40:12.370Z,27.80
2018-11-26T10:42:40.869Z,28.77
2018-11-26T10:45:10.902Z,27.90
2018-11-26T10:47:39.421Z,26.17
2018-11-26T10:50:10.653Z,27.67
2018-11-26T10:52:39.388Z,26.07
2018-11-26T10:55:10.072Z,26.97
2018-11-26T10:57:38.624Z,27.53
2018-11-26T11:00:13.359Z,26.57
2018-11-26T11:02:42.111Z,26.57
2018-11-26T11:05:10.861Z,27.93
2018-11-26T11:07:39.456Z,28.63
2018-11-26T11:10:12.297Z,26.33
2018-11-26T11:12:40.741Z,27.23
2018-11-26T11:15:11.422Z,27.43
2018-11-26T11:17:39.956Z,28.00
2018-11-26T11:20:15.993Z,27.40
2018-11-26T11:22:44.518Z,28.60
2018-11-26T11:25:14.017Z,29.33
2018-11-26T11:27:42.551Z,26.37
2018-11-26T11:30:17.277Z,27.83
2018-11-26T11:32:45.815Z,27.57
2018-11-26T11:35:15.067Z,27.13
2018-11-26T11:37:44.533Z,26.77
2018-11-26T11:40:16.432Z,28.53
2018-11-26T11:42:44.923Z,28.50
2018-11-26T11:45:13.919Z,27.70
2018-11-26T11:47:42.496Z,28.00
2018-11-26T11:50:12.896Z,27.87
2018-11-26T11:52:41.442Z,29.10
2018-11-26T11:55:12.031Z,28.13
2018-11-26T11:57:40.525Z,28.23
2018-11-26T12:00:12.042Z,28.80
2018-11-26T12:02:41.786Z,25.07
2018-11-26T12:05:12.901Z,28.47
2018-11-26T12:07:41.400Z,27.13
2018-11-26T12:10:11.825Z,30.07
2018-11-26T12:12:40.295Z,28.87
2018-11-26T12:15:10.507Z,29.27
2018-11-26T12:17:39.013Z,29.90
2018-11-26T12:20:09.915Z,28.17
2018-11-26T12:22:38.451Z,28.97
2018-11-26T12:25:08.630Z,27.37
2018-11-26T12:27:37.036Z,29.43
2018-11-26T12:30:10.867Z,27.83
2018-11-26T12:32:39.352Z,27.30
2018-11-26T12:35:07.823Z,27.80
2018-11-26T12:37:36.296Z,28.13
2018-11-26T12:40:06.468Z,29.23
2018-11-26T12:42:34.918Z,27.63
2018-11-26T12:45:03.452Z,27.77
2018-11-26T12:47:31.897Z,28.27
2018-11-26T12:50:00.337Z,29.57
2018-11-26T12:52:28.901Z,29.00
2018-11-26T12:54:57.425Z,29.73
2018-11-26T12:57:25.877Z,28.83
2018-11-26T12:59:54.334Z,30.43
2018-11-26T13:02:22.854Z,27.73
2018-11-26T13:04:51.368Z,28.90
2018-11-26T13:07:19.915Z,29.63
2018-11-26T13:09:48.454Z,28.47
2018-11-26T13:12:16.934Z,29.20
2018-11-26T13:14:45.355Z,29.77
2018-11-26T13:17:13.811Z,29.23
2018-11-26T13:19:42.327Z,30.17
2018-11-26T13:22:10.797Z,27.97
2018-11-26T13:24:39.236Z,31.03
2018-11-26T13:27:07.726Z,30.67
2018-11-26T13:29:36.221Z,30.63
2018-11-26T13:32:04.710Z,30.63
2018-11-26T13:34:33.207Z,30.53
2018-11-26T13:37:01.725Z,31.27
2018-11-26T13:39:30.202Z,31.23
2018-11-26T13:41:58.716Z,30.43
2018-11-26T13:44:27.182Z,30.83
2018-11-26T13:46:55.624Z,30.67
2018-11-26T13:49:24.072Z,29.37
2018-11-26T13:51:52.652Z,30.90
2018-11-26T13:54:21.281Z,31.93
2018-11-26T13:56:50.732Z,33.20
2018-11-26T13:59:19.302Z,29.53
2018-11-26T14:01:47.915Z,31.90
2018-11-26T14:04:16.371Z,32.00
2018-11-26T14:06:44.851Z,31.23
2018-11-26T14:09:13.351Z,30.13
2018-11-26T14:11:41.819Z,31.43
2018-11-26T14:14:10.323Z,30.67
2018-11-26T14:16:38.775Z,31.47
2018-11-26T14:19:07.452Z,30.07
2018-11-26T14:21:35.944Z,30.07
2018-11-26T14:24:04.447Z,31.47
2018-11-26T14:26:32.961Z,30.40
2018-11-26T14:29:01.571Z,32.50
2018-11-26T14:31:30.043Z,31.30
2018-11-26T14:33:58.558Z,31.00
2018-11-26T14:36:27.070Z,30.10
2018-11-26T14:38:55.551Z,30.60
2018-11-26T14:41:24.025Z,30.67
2018-11-26T14:43:53.145Z,30.37
2018-11-26T14:46:21.651Z,32.93
2018-11-26T14:48:50.187Z,31.03
2018-11-26T14:51:18.664Z,29.10
2018-11-26T14:53:47.127Z,31.47
2018-11-26T14:56:15.610Z,29.63
2018-11-26T14:58:44.144Z,31.37
2018-11-26T15:01:12.661Z,31.57
2018-11-26T15:03:41.168Z,30.83
2018-11-26T15:06:09.599Z,31.17
2018-11-26T15:08:38.133Z,28.13
2018-11-26T15:11:08.039Z,30.40
2018-11-26T15:13:36.525Z,30.70
2018-11-26T15:16:05.094Z,29.40
2018-11-26T15:18:33.566Z,32.60
2018-11-26T15:21:02.046Z,31.83
2018-11-26T15:23:30.505Z,30.73
2018-11-26T15:25:58.977Z,34.20
2018-11-26T15:28:27.455Z,33.70
2018-11-26T15:30:55.949Z,32.87
2018-11-26T15:33:24.398Z,33.23
2018-11-26T15:35:52.850Z,31.70
2018-11-26T15:38:21.320Z,35.60
2018-11-26T15:40:49.811Z,31.50
2018-11-26T15:43:18.363Z,33.03
2018-11-26T15:45:46.844Z,30.97
2018-11-26T15:48:15.324Z,32.57
2018-11-26T15:50:43.801Z,32.40
2018-11-26T15:53:12.270Z,32.50
2018-11-26T15:55:40.788Z,33.70
2018-11-26T15:58:09.963Z,32.13
2018-11-26T16:00:38.496Z,34.67
2018-11-26T16:03:07.283Z,32.63
2018-11-26T16:05:37.732Z,32.80
2018-11-26T16:08:08.928Z,32.90
2018-11-26T16:10:37.407Z,33.50
2018-11-26T16:13:07.559Z,32.00
2018-11-26T16:15:39.488Z,31.40
2018-11-26T16:18:10.446Z,30.53
2018-11-26T16:20:38.899Z,32.47
2018-11-26T16:23:08.760Z,31.33
2018-11-26T16:25:38.989Z,30.67
2018-11-26T16:28:07.457Z,33.33
2018-11-26T16:30:36.018Z,31.80
2018-11-26T16:33:04.544Z,31.77
2018-11-26T16:35:33.885Z,33.20
2018-11-26T16:38:02.418Z,29.63
2018-11-26T16:40:30.898Z,31.10
2018-11-26T16:42:59.414Z,32.37
2018-11-26T16:45:28.532Z,30.53
2018-11-26T16:47:58.050Z,28.70
2018-11-26T16:50:27.887Z,29.90
2018-11-26T16:52:56.363Z,29.40
2018-11-26T16:55:24.873Z,27.67
2018-11-26T16:57:53.381Z,30.00
2018-11-26T17:00:23.967Z,27.43
2018-11-26T17:02:55.468Z,29.23
2018-11-26T17:05:25.720Z,27.23
2018-11-26T17:07:54.167Z,26.17
2018-11-26T17:10:22.675Z,27.43
2018-11-26T17:12:51.205Z,29.93
2018-11-26T17:15:19.676Z,28.27
2018-11-26T17:17:48.098Z,27.13
2018-11-26T17:20:17.334Z,29.70
2018-11-26T17:22:46.678Z,29.27
2018-11-26T17:25:16.158Z,27.57
2018-11-26T17:27:45.127Z,27.60
2018-11-26T17:30:16.816Z,25.73
2018-11-26T17:32:45.942Z,28.27
2018-11-26T17:35:15.276Z,26.13
2018-11-26T17:37:43.823Z,26.70
2018-11-26T17:40:17.736Z,27.03
2018-11-26T17:42:46.263Z,27.33
2018-11-26T17:45:15.372Z,29.03
2018-11-26T17:47:49.070Z,26.37
2018-11-26T17:50:20.266Z,28.50
2018-11-26T17:52:48.810Z,28.10
2018-11-26T17:55:17.271Z,28.27
2018-11-26T17:57:46.528Z,28.93
2018-11-26T18:00:23.162Z,28.43
2018-11-26T18:02:51.730Z,27.33
2018-11-26T18:05:28.231Z,26.97
2018-11-26T18:07:58.567Z,25.47
2018-11-26T18:10:27.023Z,27.57
2018-11-26T18:12:55.452Z,29.03
2018-11-26T18:15:23.955Z,27.80
2018-11-26T18:17:52.417Z,26.77
2018-11-26T18:20:21.778Z,30.53
2018-11-26T18:22:52.220Z,28.47
2018-11-26T18:25:21.311Z,30.27
2018-11-26T18:27:52.515Z,28.90
2018-11-26T18:30:25.082Z,29.10
2018-11-26T18:32:53.557Z,29.60
2018-11-26T18:35:22.067Z,29.83
2018-11-26T18:37:50.586Z,29.23
2018-11-26T18:40:19.043Z,30.37
2018-11-26T18:42:47.541Z,29.37
2018-11-26T18:45:18.087Z,28.57
2018-11-26T18:47:47.176Z,31.60
2018-11-26T18:50:16.831Z,30.03
2018-11-26T18:52:45.909Z,30.87
2018-11-26T18:55:14.398Z,30.33
2018-11-26T18:57:43.092Z,28.30
2018-11-26T19:00:19.127Z,29.13
2018-11-26T19:02:47.640Z,31.03
2018-11-26T19:05:17.035Z,31.30
2018-11-26T19:07:45.659Z,31.87
2018-11-26T19:10:16.218Z,29.70
2018-11-26T19:12:48.157Z,28.73
2018-11-26T19:15:36.876Z,29.10
2018-11-26T19:18:16.363Z,29.00
2018-11-26T19:20:44.898Z,30.03
2018-11-26T19:23:13.380Z,28.13
2018-11-26T19:25:41.870Z,30.27
2018-11-26T19:28:10.348Z,30.23
2018-11-26T19:30:38.845Z,31.17
2018-11-26T19:33:08.439Z,32.07
2018-11-26T19:35:37.868Z,29.13
2018-11-26T19:38:07.077Z,30.20
2018-11-26T19:40:36.510Z,29.20
2018-11-26T19:43:05.221Z,31.10
2018-11-26T19:45:33.698Z,28.90
2018-11-26T19:48:03.187Z,28.80
2018-11-26T19:50:31.684Z,28.13
2018-11-26T19:53:00.197Z,28.83
2018-11-26T19:55:28.841Z,27.93
2018-11-26T19:57:58.305Z,28.43
2018-11-26T20:00:30.554Z,29.60
2018-11-26T20:03:01.406Z,29.67
2018-11-26T20:05:36.250Z,29.27
2018-11-26T20:08:04.764Z,27.27
2018-11-26T20:10:33.247Z,27.50
2018-11-26T20:13:01.686Z,26.70
2018-11-26T20:15:30.173Z,26.67
2018-11-26T20:17:59.188Z,29.70
2018-11-26T20:20:27.170Z,27.40
2018-11-26T20:22:55.631Z,28.57
2018-11-26T20:25:24.115Z,26.27
2018-11-26T20:27:52.579Z,28.73
2018-11-26T20:30:21.075Z,29.50
2018-11-26T20:32:49.593Z,29.97
2018-11-26T20:35:18.079Z,31.10
2018-11-26T20:37:46.575Z,29.87
2018-11-26T20:40:16.152Z,27.77
2018-11-26T20:42:49.582Z,27.03
2018-11-26T20:45:18.067Z,29.70
2018-11-26T20:47:47.423Z,29.73
2018-11-26T20:50:33.325Z,30.07
2018-11-26T20:53:01.786Z,29.63
2018-11-26T20:55:31.289Z,30.17
2018-11-26T20:57:59.777Z,30.10
2018-11-26T21:00:29.230Z,29.10
2018-11-26T21:03:04.408Z,30.97
2018-11-26T21:05:32.969Z,31.03
2018-11-26T21:08:01.445Z,29.37
2018-11-26T21:10:29.939Z,30.67
2018-11-26T21:12:58.456Z,30.07
2018-11-26T21:15:26.954Z,32.30
2018-11-26T21:17:56.556Z,31.43
2018-11-26T21:20:29.515Z,29.10
2018-11-26T21:22:58.482Z,31.63
2018-11-26T21:25:26.976Z,30.10
2018-11-26T21:27:56.699Z,31.97
2018-11-26T21:30:25.770Z,32.53
2018-11-26T21:32:54.227Z,30.97
2018-11-26T21:35:22.796Z,31.03
2018-11-26T21:37:52.203Z,30.93
2018-11-26T21:40:22.121Z,30.00
2018-11-26T21:42:50.574Z,31.17
2018-11-26T21:45:23.463Z,32.27
2018-11-26T21:47:51.913Z,32.23
2018-11-26T21:50:20.355Z,31.20
2018-11-26T21:52:48.816Z,31.13
2018-11-26T21:55:18.252Z,31.53
2018-11-26T21:57:46.864Z,30.30
2018-11-26T22:00:24.104Z,30.97
2018-11-26T22:02:53.519Z,31.30
2018-11-26T22:05:22.079Z,29.37
2018-11-26T22:07:51.041Z,30.90
2018-11-26T22:10:20.842Z,30.13
2018-11-26T22:12:51.505Z,32.07
2018-11-26T22:15:20.048Z,34.53
2018-11-26T22:17:48.643Z,32.60
2018-11-26T22:20:22.324Z,33.77
2018-11-26T22:22:50.982Z,32.57
2018-11-26T22:25:19.620Z,32.07
2018-11-26T22:27:48.268Z,32.07
2018-11-26T22:30:29.708Z,31.27
2018-11-26T22:32:58.277Z,29.77
2018-11-26T22:35:26.796Z,30.97
2018-11-26T22:37:55.335Z,30.90
2018-11-26T22:40:25.287Z,31.83
2018-11-26T22:42:53.993Z,31.43
2018-11-26T22:45:25.222Z,32.73
2018-11-26T22:47:57.936Z,33.30
2018-11-26T22:50:26.566Z,33.30
2018-11-26T22:52:55.119Z,31.57
2018-11-26T22:55:23.735Z,33.73
2018-11-26T22:57:52.496Z,33.40
2018-11-26T23:00:23.938Z,34.67
2018-11-26T23:02:53.796Z,33.40
2018-11-26T23:05:22.466Z,32.17
2018-11-26T23:07:51.096Z,33.23
2018-11-26T23:10:19.726Z,31.57
2018-11-26T23:12:48.340Z,30.43
2018-11-26T23:15:17.122Z,30.53
2018-11-26T23:17:46.481Z,33.53
2018-11-26T23:20:16.959Z,32.53
2018-11-26T23:22:45.572Z,30.53
2018-11-26T23:25:17.376Z,31.50
2018-11-26T23:27:45.999Z,32.30
2018-11-26T23:30:16.723Z,31.97
2018-11-26T23:32:46.200Z,32.67
2018-11-26T23:35:15.428Z,32.47
2018-11-26T23:37:44.275Z,30.43
2018-11-26T23:40:13.517Z,34.53
2018-11-26T23:42:42.123Z,33.30
2018-11-26T23:45:12.808Z,32.07
2018-11-26T23:47:41.532Z,31.40
2018-11-26T23:50:13.411Z,33.73
2018-11-26T23:52:44.674Z,31.33
2018-11-26T23:55:20.617Z,31.33
